Time;durP1;ratioP1;P1;durP2;ratioP2;P2;SDS_P1;SDS_P2;PMS_P1;PMS_P2;Temp;Humidity;BMP_temperature;BMP_pressure;BME280_temperature;BME280_humidity;BME280_pressure;Samples;Min_cycle;Max_cycle;Signal;HPM_P1;HPM_P2
2020/12/23 00:02:22;;;;;;;12.18;2.65;;;10.60;91.40;;;;;;5029888;28;20025;-70
2020/12/23 00:04:48;;;;;;;13.45;3.97;;;10.50;90.70;;;;;;5033084;28;20030;-71
2020/12/23 00:07:15;;;;;;;10.50;2.55;;;10.50;90.50;;;;;;5038798;28;20119;-71
2020/12/23 00:09:41;;;;;;;9.32;3.00;;;10.50;90.70;;;;;;5053276;28;20078;-71
2020/12/23 00:12:07;;;;;;;15.23;2.63;;;10.50;90.90;;;;;;5015763;28;20030;-71
2020/12/23 00:14:32;;;;;;;8.48;1.83;;;10.50;90.80;;;;;;4995150;28;20034;-71
2020/12/23 00:16:58;;;;;;;9.07;2.80;;;10.40;90.60;;;;;;5034533;28;20533;-71
2020/12/23 00:19:23;;;;;;;11.80;2.90;;;10.40;90.90;;;;;;5027224;28;20037;-71
2020/12/23 00:21:49;;;;;;;12.27;3.47;;;10.40;90.80;;;;;;5039540;28;20033;-71
2020/12/23 00:24:14;;;;;;;11.07;2.42;;;10.50;90.80;;;;;;5031332;28;20079;-71
2020/12/23 00:26:43;;;;;;;17.25;3.33;;;10.50;90.70;;;;;;5023008;28;20033;-71
2020/12/23 00:29:08;;;;;;;12.13;2.63;;;10.60;90.70;;;;;;5023879;28;20474;-71
2020/12/23 00:31:34;;;;;;;14.20;2.72;;;10.50;90.40;;;;;;5021751;28;20029;-71
2020/12/23 00:33:59;;;;;;;11.80;2.17;;;10.50;90.50;;;;;;5024816;28;20034;-69
2020/12/23 00:36:25;;;;;;;6.50;1.98;;;10.40;90.50;;;;;;5024477;28;20029;-69
2020/12/23 00:38:50;;;;;;;12.55;2.17;;;10.40;90.60;;;;;;5040855;28;20095;-70
2020/12/23 00:41:17;;;;;;;11.63;2.65;;;10.40;90.70;;;;;;5019246;28;20028;-70
2020/12/23 00:43:42;;;;;;;10.13;2.20;;;10.40;90.80;;;;;;5027474;28;20037;-69
2020/12/23 00:46:12;;;;;;;9.93;2.42;;;10.50;91.00;;;;;;5017056;28;20389;-69
2020/12/23 00:48:42;;;;;;;12.07;2.25;;;10.50;90.90;;;;;;5025452;28;20492;-69
2020/12/23 00:51:11;;;;;;;9.52;2.33;;;10.50;90.80;;;;;;5030632;28;20053;-69
2020/12/23 00:53:38;;;;;;;6.60;1.92;;;10.60;90.70;;;;;;5031025;28;20041;-69
2020/12/23 00:56:04;;;;;;;13.95;2.10;;;10.60;90.60;;;;;;5030892;28;20025;-70
2020/12/23 00:58:29;;;;;;;6.93;1.88;;;10.60;90.60;;;;;;5023764;28;20108;-69
2020/12/23 01:00:55;;;;;;;16.35;2.65;;;10.60;90.60;;;;;;4995716;28;20167;-70
2020/12/23 01:03:20;;;;;;;13.77;3.40;;;10.60;90.50;;;;;;5037870;28;20497;-71
2020/12/23 01:05:45;;;;;;;12.90;2.83;;;10.60;90.10;;;;;;5013433;28;20489;-71
2020/12/23 01:08:11;;;;;;;13.13;2.15;;;10.60;90.20;;;;;;5031025;28;20017;-72
2020/12/23 01:10:36;;;;;;;12.25;3.22;;;10.60;89.90;;;;;;5034678;28;20108;-72
2020/12/23 01:13:02;;;;;;;12.82;3.55;;;10.60;90.00;;;;;;5024572;28;20022;-72
2020/12/23 01:15:27;;;;;;;14.98;2.00;;;10.60;90.00;;;;;;5032964;28;20038;-70
2020/12/23 01:17:53;;;;;;;8.07;2.10;;;10.60;90.00;;;;;;5030066;28;20112;-70
2020/12/23 01:20:18;;;;;;;12.15;2.40;;;10.60;90.10;;;;;;5031975;28;20520;-70
2020/12/23 01:22:44;;;;;;;9.38;2.35;;;10.60;90.30;;;;;;5027118;28;20164;-70
2020/12/23 01:25:09;;;;;;;12.63;1.92;;;10.70;90.20;;;;;;5011687;28;20030;-70
2020/12/23 01:27:35;;;;;;;12.77;3.22;;;10.70;90.10;;;;;;5027768;28;20025;-70
2020/12/23 01:30:00;;;;;;;7.65;2.55;;;10.70;90.10;;;;;;5050980;28;20023;-70
2020/12/23 01:32:26;;;;;;;9.57;2.03;;;10.70;90.00;;;;;;5031497;28;20049;-70
2020/12/23 01:34:51;;;;;;;4.03;1.88;;;10.80;90.10;;;;;;5018546;28;20159;-70
2020/12/23 01:37:17;;;;;;;6.70;2.17;;;10.80;90.10;;;;;;5039756;28;20103;-70
2020/12/23 01:39:42;;;;;;;11.52;2.20;;;10.80;90.10;;;;;;5051324;28;20036;-70
2020/12/23 01:42:08;;;;;;;13.25;2.15;;;10.80;90.10;;;;;;5035292;28;20021;-70
2020/12/23 01:44:37;;;;;;;9.82;2.40;;;10.90;90.00;;;;;;5031113;28;20555;-70
2020/12/23 01:47:10;;;;;;;14.10;2.30;;;10.90;89.50;;;;;;5029562;28;20037;-69
2020/12/23 01:49:36;;;;;;;9.80;1.92;;;10.90;89.50;;;;;;5031630;28;20036;-70
2020/12/23 01:52:02;;;;;;;11.70;2.10;;;10.90;89.40;;;;;;5032905;28;20405;-70
2020/12/23 01:54:27;;;;;;;8.68;1.80;;;10.90;89.50;;;;;;5050881;28;20052;-69
2020/12/23 01:56:56;;;;;;;8.75;2.53;;;10.90;89.50;;;;;;5031204;28;20025;-70
2020/12/23 01:59:22;;;;;;;12.95;2.35;;;10.90;89.30;;;;;;5011799;28;20037;-71
2020/12/23 02:01:56;;;;;;;9.15;2.20;;;10.90;89.00;;;;;;5018154;28;20021;-71
2020/12/23 02:04:22;;;;;;;12.25;2.83;;;10.90;88.90;;;;;;5029127;28;20033;-71
2020/12/23 02:06:47;;;;;;;8.30;2.03;;;10.90;89.00;;;;;;5036072;28;20389;-70
2020/12/23 02:09:14;;;;;;;8.48;2.83;;;10.90;88.80;;;;;;5030258;28;20384;-71
2020/12/23 02:11:40;;;;;;;17.08;3.33;;;10.90;88.60;;;;;;5029645;28;20041;-71
2020/12/23 02:14:06;;;;;;;12.13;2.90;;;10.90;88.80;;;;;;5030323;28;20032;-69
2020/12/23 02:16:32;;;;;;;12.45;2.60;;;10.90;88.80;;;;;;5021086;28;20171;-69
2020/12/23 02:18:57;;;;;;;12.48;2.35;;;10.90;88.60;;;;;;5055439;28;20116;-70
2020/12/23 02:21:24;;;;;;;7.57;1.95;;;10.90;88.60;;;;;;5019034;28;20033;-70
2020/12/23 02:23:50;;;;;;;12.75;2.00;;;10.90;88.40;;;;;;5034759;28;20587;-70
2020/12/23 02:26:15;;;;;;;19.50;2.60;;;10.90;88.00;;;;;;5013843;28;20037;-70
2020/12/23 02:28:41;;;;;;;16.33;2.25;;;10.90;88.00;;;;;;5051504;28;20094;-70
2020/12/23 02:31:06;;;;;;;11.80;2.90;;;10.90;88.00;;;;;;5018025;28;20509;-71
2020/12/23 02:33:32;;;;;;;15.38;2.40;;;11.00;88.00;;;;;;5004185;28;20037;-69
2020/12/23 02:35:57;;;;;;;10.43;2.38;;;10.90;87.90;;;;;;5014763;28;20056;-70
2020/12/23 02:38:23;;;;;;;9.60;2.33;;;10.90;87.80;;;;;;5022893;28;20084;-71
2020/12/23 02:40:48;;;;;;;8.13;2.30;;;11.00;87.90;;;;;;5019715;28;20044;-71
2020/12/23 02:43:14;;;;;;;13.55;2.00;;;11.00;87.90;;;;;;5016588;28;20028;-71
2020/12/23 02:45:39;;;;;;;15.40;2.85;;;11.00;87.70;;;;;;5034783;28;20488;-71
2020/12/23 02:48:05;;;;;;;11.73;2.78;;;10.90;87.30;;;;;;5024553;28;20038;-71
2020/12/23 02:50:30;;;;;;;15.68;2.80;;;10.90;87.50;;;;;;5014891;28;20025;-71
2020/12/23 02:52:56;;;;;;;9.98;2.10;;;10.90;87.50;;;;;;5028270;28;20040;-71
2020/12/23 02:55:21;;;;;;;8.68;2.00;;;10.90;87.30;;;;;;5032207;28;20049;-71
2020/12/23 02:57:46;;;;;;;8.63;2.30;;;10.90;87.30;;;;;;5034606;28;20022;-71
2020/12/23 03:00:12;;;;;;;10.65;1.95;;;10.90;87.30;;;;;;5014227;28;20021;-71
2020/12/23 03:02:37;;;;;;;9.50;1.98;;;10.90;87.20;;;;;;5026110;28;20021;-71
2020/12/23 03:05:03;;;;;;;10.77;2.30;;;10.90;86.40;;;;;;5034216;28;20028;-70
2020/12/23 03:07:29;;;;;;;14.02;2.45;;;10.90;85.40;;;;;;5026240;28;20022;-70
2020/12/23 03:09:54;;;;;;;8.65;2.33;;;10.90;84.80;;;;;;5034033;28;20029;-69
2020/12/23 03:12:20;;;;;;;11.38;3.25;;;10.80;85.50;;;;;;5017650;28;20025;-70
2020/12/23 03:14:45;;;;;;;11.40;2.20;;;10.90;85.50;;;;;;5014411;28;20113;-70
2020/12/23 03:17:11;;;;;;;6.65;1.95;;;10.90;85.50;;;;;;5020047;28;20468;-70
2020/12/23 03:19:36;;;;;;;10.40;2.08;;;10.90;85.80;;;;;;5033901;28;20067;-70
2020/12/23 03:22:02;;;;;;;13.27;2.30;;;10.80;85.80;;;;;;5005774;28;20656;-70
2020/12/23 03:24:27;;;;;;;14.88;2.22;;;10.90;85.90;;;;;;5053732;28;20029;-70
2020/12/23 03:26:53;;;;;;;10.90;2.10;;;10.90;86.10;;;;;;5037725;28;20035;-70
2020/12/23 03:29:18;;;;;;;9.68;1.77;;;10.90;86.00;;;;;;5038066;28;20439;-71
2020/12/23 03:31:44;;;;;;;7.78;2.00;;;10.90;85.90;;;;;;5040191;28;20420;-71
2020/12/23 03:34:09;;;;;;;13.10;2.35;;;10.80;85.70;;;;;;5033488;28;20021;-71
2020/12/23 03:36:35;;;;;;;12.50;2.85;;;10.80;85.60;;;;;;5022086;28;20464;-70
2020/12/23 03:39:00;;;;;;;9.15;1.90;;;10.80;85.40;;;;;;5047595;28;20025;-70
2020/12/23 03:41:26;;;;;;;9.00;2.40;;;10.80;85.30;;;;;;5031223;28;20133;-70
2020/12/23 03:43:52;;;;;;;12.88;3.45;;;10.80;85.50;;;;;;5032398;28;20030;-71
2020/12/23 03:46:17;;;;;;;9.85;2.35;;;10.80;85.30;;;;;;5031511;28;20025;-70
2020/12/23 03:48:43;;;;;;;11.48;2.97;;;10.80;85.20;;;;;;5044002;28;20025;-70
2020/12/23 03:51:08;;;;;;;7.45;2.50;;;10.80;85.40;;;;;;5039896;28;20025;-71
2020/12/23 03:53:34;;;;;;;10.05;2.38;;;10.80;85.50;;;;;;5034279;28;20506;-69
2020/12/23 03:55:59;;;;;;;12.02;2.65;;;10.80;85.40;;;;;;5032141;28;20021;-70
2020/12/23 03:58:24;;;;;;;8.48;2.15;;;10.70;85.30;;;;;;5041776;28;20072;-69
2020/12/23 04:00:51;;;;;;;9.82;2.60;;;10.70;85.40;;;;;;5021291;28;20119;-69
2020/12/23 04:03:16;;;;;;;5.88;1.80;;;10.70;85.60;;;;;;5026985;28;20367;-70
2020/12/23 04:05:42;;;;;;;9.48;2.42;;;10.80;85.60;;;;;;5032572;28;20056;-69
2020/12/23 04:08:07;;;;;;;11.60;2.20;;;10.80;85.80;;;;;;5039047;28;20028;-70
2020/12/23 04:10:33;;;;;;;10.07;2.15;;;10.70;85.80;;;;;;5036217;28;20065;-69
2020/12/23 04:12:59;;;;;;;10.50;2.13;;;10.70;85.90;;;;;;5039772;28;20052;-69
2020/12/23 04:15:24;;;;;;;11.77;2.10;;;10.70;86.40;;;;;;5022629;28;20060;-69
2020/12/23 04:17:54;;;;;;;12.98;2.13;;;10.70;86.80;;;;;;5028867;28;20045;-68
2020/12/23 04:20:19;;;;;;;11.85;2.40;;;10.80;87.10;;;;;;5019856;28;20080;-69
2020/12/23 04:22:45;;;;;;;11.02;1.83;;;10.80;87.20;;;;;;5029778;28;20412;-69
2020/12/23 04:25:11;;;;;;;8.00;1.88;;;10.80;87.50;;;;;;5023080;28;20029;-69
2020/12/23 04:27:37;;;;;;;8.80;2.17;;;10.80;87.50;;;;;;5026814;28;20101;-70
2020/12/23 04:30:05;;;;;;;10.02;2.33;;;10.80;87.50;;;;;;5013054;28;20573;-71
2020/12/23 04:32:30;;;;;;;11.88;3.15;;;10.90;87.60;;;;;;5017051;28;20087;-69
2020/12/23 04:34:58;;;;;;;7.50;1.80;;;10.90;87.60;;;;;;5050045;28;20040;-70
2020/12/23 04:37:23;;;;;;;13.30;2.38;;;10.90;87.70;;;;;;5043102;28;20029;-69
2020/12/23 04:39:49;;;;;;;8.60;2.20;;;10.80;87.70;;;;;;5013077;28;20041;-69
2020/12/23 04:42:14;;;;;;;7.88;2.00;;;10.90;87.80;;;;;;5015704;28;20355;-69
2020/12/23 04:44:40;;;;;;;9.50;2.35;;;10.90;88.00;;;;;;4995385;28;20038;-69
2020/12/23 04:47:08;;;;;;;3.92;1.77;;;10.90;88.10;;;;;;5013572;28;20079;-69
2020/12/23 04:49:37;;;;;;;9.65;1.83;;;10.90;88.30;;;;;;5032294;28;20026;-69
2020/12/23 04:52:07;;;;;;;8.13;2.08;;;10.80;88.40;;;;;;5013341;28;20365;-69
2020/12/23 04:54:34;;;;;;;6.63;1.73;;;10.80;88.50;;;;;;5032230;28;20049;-68
2020/12/23 04:57:01;;;;;;;13.25;2.28;;;10.80;89.20;;;;;;5027014;28;20033;-68
2020/12/23 04:59:27;;;;;;;11.20;2.10;;;10.80;88.80;;;;;;5034213;28;20033;-69
2020/12/23 05:01:52;;;;;;;12.45;2.40;;;10.80;88.90;;;;;;5031619;28;20478;-69
2020/12/23 05:04:18;;;;;;;12.85;2.22;;;10.80;89.00;;;;;;5015123;28;20076;-69
2020/12/23 05:06:43;;;;;;;8.52;1.80;;;10.70;89.20;;;;;;4994814;28;20030;-69
2020/12/23 05:09:09;;;;;;;10.55;2.45;;;10.70;89.30;;;;;;5044802;28;20040;-69
2020/12/23 05:11:35;;;;;;;9.73;2.22;;;10.70;89.50;;;;;;5042834;28;20483;-69
2020/12/23 05:14:08;;;;;;;10.50;2.10;;;10.70;89.50;;;;;;5043754;28;20147;-69
2020/12/23 05:16:34;;;;;;;8.18;2.15;;;10.80;89.50;;;;;;5028213;28;20040;-69
2020/12/23 05:19:00;;;;;;;8.95;1.80;;;10.70;89.60;;;;;;5028335;28;20406;-69
2020/12/23 05:21:27;;;;;;;13.35;2.22;;;10.70;89.70;;;;;;5029197;28;20034;-69
2020/12/23 05:23:53;;;;;;;9.70;1.85;;;10.70;89.90;;;;;;5038115;28;20067;-69
2020/12/23 05:26:20;;;;;;;10.63;2.72;;;10.60;89.90;;;;;;5034264;28;20026;-69
2020/12/23 05:28:46;;;;;;;8.38;2.10;;;10.60;90.00;;;;;;5026449;28;20033;-69
2020/12/23 05:31:14;;;;;;;9.00;2.28;;;10.60;90.00;;;;;;5029575;28;20028;-69
2020/12/23 05:33:41;;;;;;;9.23;2.10;;;10.60;90.10;;;;;;5029873;28;20040;-69
2020/12/23 05:36:10;;;;;;;8.80;2.05;;;10.60;90.10;;;;;;5030794;28;20107;-69
2020/12/23 05:38:36;;;;;;;11.07;2.00;;;10.60;90.20;;;;;;5038443;28;20049;-70
2020/12/23 05:41:06;;;;;;;12.32;2.50;;;10.60;90.20;;;;;;5036834;28;20033;-70
2020/12/23 05:43:32;;;;;;;10.45;2.17;;;10.70;90.30;;;;;;5021081;28;20040;-70
2020/12/23 05:46:06;;;;;;;9.70;2.17;;;10.70;90.30;;;;;;5035501;28;20033;-70
2020/12/23 05:48:34;;;;;;;12.68;1.90;;;10.70;90.30;;;;;;5018137;28;20116;-70
2020/12/23 05:51:01;;;;;;;13.30;2.08;;;10.70;90.20;;;;;;5032277;28;20037;-70
2020/12/23 05:53:27;;;;;;;11.77;2.63;;;10.70;90.20;;;;;;5037223;28;20048;-70
2020/12/23 05:55:53;;;;;;;9.82;2.08;;;10.70;90.20;;;;;;5031460;28;20455;-71
2020/12/23 05:58:28;;;;;;;9.30;2.17;;;10.70;90.30;;;;;;5029212;28;20131;-70
2020/12/23 06:00:55;;;;;;;11.52;2.50;;;10.60;90.30;;;;;;5011072;28;20073;-70
2020/12/23 06:03:55;;;;;;;13.98;2.80;;;10.60;90.50;;;;;;5024419;28;20029;-70
2020/12/23 06:06:28;;;;;;;16.10;3.15;;;10.60;90.40;;;;;;5048191;28;20428;-70
2020/12/23 06:08:56;;;;;;;8.23;1.90;;;10.60;90.40;;;;;;5030316;28;20033;-70
2020/12/23 06:11:33;;;;;;;9.25;1.90;;;10.60;90.50;;;;;;5011346;28;20026;-70
2020/12/23 06:14:06;;;;;;;9.73;2.53;;;10.60;90.50;;;;;;5018123;28;20057;-70
2020/12/23 06:16:39;;;;;;;10.13;2.20;;;10.60;90.60;;;;;;5011460;28;20439;-70
2020/12/23 06:19:10;;;;;;;7.50;2.40;;;10.50;90.70;;;;;;5009534;28;20030;-70
2020/12/23 06:21:38;;;;;;;10.88;2.25;;;10.50;90.80;;;;;;5030483;28;20375;-70
2020/12/23 06:24:11;;;;;;;9.05;2.17;;;10.50;90.80;;;;;;5025509;28;20121;-70
2020/12/23 06:26:39;;;;;;;11.93;2.50;;;10.50;90.90;;;;;;5031614;28;20104;-70
2020/12/23 06:29:06;;;;;;;24.40;4.60;;;10.50;90.90;;;;;;5030109;28;20088;-70
2020/12/23 06:31:43;;;;;;;7.90;2.08;;;10.50;91.00;;;;;;5030668;28;20030;-70
2020/12/23 06:34:23;;;;;;;11.35;2.70;;;10.50;91.00;;;;;;5036604;28;20030;-70
2020/12/23 06:36:50;;;;;;;9.65;2.25;;;10.50;91.10;;;;;;5030946;28;20029;-70
2020/12/23 06:39:19;;;;;;;9.02;2.47;;;10.50;91.10;;;;;;5027163;28;20026;-68
2020/12/23 06:41:59;;;;;;;11.23;2.60;;;10.50;91.20;;;;;;5033310;28;20025;-69
2020/12/23 06:44:51;;;;;;;9.82;2.20;;;10.50;91.20;;;;;;5040870;28;20087;-72
2020/12/23 06:47:21;;;;;;;11.20;2.50;;;10.50;91.30;;;;;;4992505;28;20045;-72
2020/12/23 06:50:04;;;;;;;11.13;2.50;;;10.40;91.30;;;;;;5027395;28;20037;-70
2020/12/23 06:52:37;;;;;;;8.82;2.13;;;10.40;91.30;;;;;;5023319;28;20037;-68
2020/12/23 06:55:04;;;;;;;11.13;2.72;;;10.50;91.40;;;;;;5042278;28;20061;-68
2020/12/23 06:57:35;;;;;;;7.72;2.20;;;10.40;91.40;;;;;;5029553;28;20033;-69
2020/12/23 07:00:23;;;;;;;8.93;2.45;;;10.40;91.50;;;;;;5028286;28;20037;-69
2020/12/23 07:02:50;;;;;;;8.82;2.28;;;10.40;91.50;;;;;;5002311;28;20462;-70
2020/12/23 07:05:21;;;;;;;10.13;2.08;;;10.40;91.60;;;;;;5020685;28;20030;-69
2020/12/23 07:07:50;;;;;;;9.77;2.63;;;10.40;91.60;;;;;;5017226;28;20121;-69
2020/12/23 07:10:23;;;;;;;13.32;2.40;;;10.40;91.70;;;;;;5014698;28;20030;-69
2020/12/23 07:12:51;;;;;;;11.45;2.67;;;10.40;91.80;;;;;;5014805;28;20040;-69
2020/12/23 07:15:27;;;;;;;8.65;2.75;;;10.40;92.00;;;;;;5053831;28;20037;-69
2020/12/23 07:17:55;;;;;;;9.90;2.55;;;10.40;91.80;;;;;;5039792;28;20026;-69
2020/12/23 07:20:23;;;;;;;10.30;2.45;;;10.50;91.80;;;;;;5034259;28;20108;-69
2020/12/23 07:22:50;;;;;;;8.45;2.67;;;10.40;91.80;;;;;;5032540;28;20033;-70
2020/12/23 07:25:23;;;;;;;14.00;3.53;;;10.40;91.80;;;;;;5032034;28;20067;-70
2020/12/23 07:27:55;;;;;;;15.25;2.92;;;10.40;91.80;;;;;;5037766;28;20028;-69
2020/12/23 07:30:21;;;;;;;10.45;2.90;;;10.40;91.90;;;;;;5014139;28;20034;-70
2020/12/23 07:32:58;;;;;;;14.13;3.17;;;10.40;91.90;;;;;;5016291;28;20356;-70
2020/12/23 07:35:26;;;;;;;10.93;3.05;;;10.40;92.20;;;;;;5015134;28;20124;-71
2020/12/23 07:37:57;;;;;;;13.77;2.72;;;10.40;91.90;;;;;;5023392;28;20065;-71
2020/12/23 07:40:22;;;;;;;11.77;3.03;;;10.30;91.90;;;;;;5033772;28;20490;-71
2020/12/23 07:42:49;;;;;;;13.60;2.72;;;10.40;91.90;;;;;;5021427;28;20064;-68
2020/12/23 07:45:16;;;;;;;8.52;2.83;;;10.40;91.90;;;;;;5033827;28;20048;-69
2020/12/23 07:48:04;;;;;;;12.60;3.63;;;10.40;91.90;;;;;;5019307;28;20022;-69
2020/12/23 07:50:32;;;;;;;13.77;2.78;;;10.30;91.90;;;;;;5026320;28;20041;-69
2020/12/23 07:52:58;;;;;;;12.95;3.13;;;10.30;92.10;;;;;;5026832;28;20739;-69
2020/12/23 07:55:24;;;;;;;13.82;3.17;;;10.40;92.30;;;;;;5033536;28;20041;-69
2020/12/23 07:57:53;;;;;;;18.65;3.97;;;10.40;92.10;;;;;;5031299;28;20036;-69
2020/12/23 08:00:20;;;;;;;11.98;3.08;;;10.40;92.10;;;;;;5037622;28;20195;-68
2020/12/23 08:02:46;;;;;;;15.30;3.78;;;10.50;92.10;;;;;;5026421;28;20104;-68
2020/12/23 08:05:13;;;;;;;15.82;4.13;;;10.40;92.20;;;;;;5013411;28;20026;-69
2020/12/23 08:07:40;;;;;;;14.68;3.25;;;10.50;92.20;;;;;;5029207;28;20533;-69
2020/12/23 08:10:10;;;;;;;14.02;3.38;;;10.50;92.00;;;;;;5037210;28;20025;-69
2020/12/23 08:12:36;;;;;;;15.68;3.75;;;10.50;92.00;;;;;;5041195;28;20029;-68
2020/12/23 08:15:08;;;;;;;15.60;3.55;;;10.50;92.00;;;;;;5025467;28;20529;-69
2020/12/23 08:17:34;;;;;;;13.13;3.25;;;10.50;92.00;;;;;;5024717;28;20057;-69
2020/12/23 08:20:08;;;;;;;13.55;3.80;;;10.50;92.20;;;;;;5030480;28;20072;-69
2020/12/23 08:22:35;;;;;;;17.67;3.45;;;10.50;92.20;;;;;;5032099;28;20018;-69
2020/12/23 08:25:06;;;;;;;11.60;3.30;;;10.50;92.20;;;;;;5026264;28;20042;-70
2020/12/23 08:27:32;;;;;;;12.15;2.90;;;10.50;92.00;;;;;;5028073;28;20026;-69
2020/12/23 08:30:00;;;;;;;10.15;3.75;;;10.50;92.10;;;;;;5015750;28;20037;-69
2020/12/23 08:32:30;;;;;;;18.98;3.78;;;10.50;92.10;;;;;;5030308;28;20040;-70
2020/12/23 08:34:59;;;;;;;13.77;3.83;;;10.50;92.10;;;;;;5034411;28;20029;-69
2020/12/23 08:37:25;;;;;;;11.60;3.55;;;10.50;92.00;;;;;;5029613;28;20030;-70
2020/12/23 08:39:58;;;;;;;14.63;3.75;;;10.50;92.10;;;;;;5030538;28;20021;-69
2020/12/23 08:42:25;;;;;;;14.32;3.72;;;10.50;92.00;;;;;;5010375;28;20622;-70
2020/12/23 08:44:53;;;;;;;14.05;3.40;;;10.50;92.10;;;;;;5025631;28;20386;-69
2020/12/23 08:47:27;;;;;;;17.88;2.97;;;10.50;92.30;;;;;;5030136;28;20026;-69
2020/12/23 08:49:54;;;;;;;15.13;3.33;;;10.60;92.40;;;;;;5026893;28;20450;-70
2020/12/23 08:52:21;;;;;;;20.77;3.85;;;10.60;92.20;;;;;;5031808;28;20083;-69
2020/12/23 08:54:48;;;;;;;11.88;3.25;;;10.60;92.30;;;;;;5028955;28;20406;-69
2020/12/23 08:57:16;;;;;;;14.73;3.05;;;10.60;92.30;;;;;;5028553;28;20045;-69
2020/12/23 08:59:41;;;;;;;12.07;3.00;;;10.70;92.00;;;;;;5031564;28;20037;-69
2020/12/23 09:02:11;;;;;;;9.68;3.38;;;10.70;91.90;;;;;;5031532;28;20116;-69
2020/12/23 09:04:36;;;;;;;11.05;3.00;;;10.70;92.00;;;;;;5038861;28;20036;-69
2020/12/23 09:07:02;;;;;;;12.52;3.95;;;10.70;92.10;;;;;;5022309;28;20386;-69
2020/12/23 09:09:28;;;;;;;13.90;4.35;;;10.70;92.10;;;;;;5030475;28;20105;-69
2020/12/23 09:11:54;;;;;;;13.60;3.05;;;10.80;92.10;;;;;;5019833;28;20025;-69
2020/12/23 09:14:22;;;;;;;15.85;3.90;;;10.80;92.20;;;;;;5030876;28;20493;-70
2020/12/23 09:17:05;;;;;;;11.75;3.15;;;10.80;92.00;;;;;;5024577;28;20030;-69
2020/12/23 09:19:43;;;;;;;8.82;3.13;;;10.80;92.00;;;;;;5031879;28;20359;-67
2020/12/23 09:22:10;;;;;;;13.27;3.50;;;10.80;92.00;;;;;;5020840;28;20030;-67
2020/12/23 09:24:37;;;;;;;12.98;3.10;;;10.80;92.00;;;;;;5036677;28;20417;-67
2020/12/23 09:27:23;;;;;;;8.98;2.60;;;10.80;91.90;;;;;;5031089;28;20114;-67
2020/12/23 09:29:51;;;;;;;13.75;3.13;;;10.80;91.90;;;;;;5033725;28;20560;-67
2020/12/23 09:32:16;;;;;;;11.23;2.50;;;10.80;91.90;;;;;;5002143;28;20034;-69
2020/12/23 09:34:42;;;;;;;8.27;2.17;;;10.80;91.90;;;;;;5042064;28;20029;-69
2020/12/23 09:37:07;;;;;;;9.30;2.95;;;10.80;91.90;;;;;;5039225;28;20432;-69
2020/12/23 09:39:37;;;;;;;9.82;2.45;;;10.80;92.10;;;;;;5030349;28;20382;-70
2020/12/23 09:42:05;;;;;;;10.15;3.13;;;10.80;91.90;;;;;;5030819;28;20028;-69
2020/12/23 09:44:31;;;;;;;14.13;2.83;;;10.80;91.90;;;;;;5029049;28;20141;-68
2020/12/23 09:46:57;;;;;;;6.32;1.98;;;10.80;92.00;;;;;;5031654;28;20025;-69
2020/12/23 09:49:22;;;;;;;12.50;3.00;;;10.80;92.00;;;;;;5028584;28;20025;-69
2020/12/23 09:51:48;;;;;;;10.98;2.83;;;10.80;92.00;;;;;;5031453;28;20087;-69
2020/12/23 09:54:14;;;;;;;11.48;4.10;;;10.80;92.00;;;;;;5030439;28;20041;-69
2020/12/23 09:57:06;;;;;;;10.35;3.08;;;10.80;92.00;;;;;;5030150;28;20036;-69
2020/12/23 09:59:32;;;;;;;11.45;2.55;;;10.90;92.00;;;;;;5026323;28;20056;-71
2020/12/23 10:01:57;;;;;;;10.48;2.35;;;11.00;92.00;;;;;;5030622;28;20034;-69
2020/12/23 10:04:23;;;;;;;8.35;2.65;;;11.00;91.90;;;;;;5029850;28;20029;-69
2020/12/23 10:06:48;;;;;;;6.25;1.95;;;11.00;91.90;;;;;;4996091;28;20010;-69
2020/12/23 10:09:14;;;;;;;14.15;2.58;;;11.00;91.90;;;;;;5027186;28;20029;-69
2020/12/23 10:11:39;;;;;;;10.07;2.40;;;11.10;91.90;;;;;;5034158;28;20116;-69
2020/12/23 10:14:05;;;;;;;13.18;2.50;;;11.10;92.00;;;;;;5029566;28;20044;-68
2020/12/23 10:16:32;;;;;;;16.95;2.92;;;11.20;91.90;;;;;;5030715;28;20075;-69
2020/12/23 10:18:58;;;;;;;14.23;3.10;;;11.20;91.90;;;;;;5030911;28;20024;-69
2020/12/23 10:21:24;;;;;;;13.70;2.95;;;11.20;91.90;;;;;;5028546;28;20418;-69
2020/12/23 10:23:49;;;;;;;9.93;2.75;;;11.20;92.00;;;;;;5029942;28;20653;-69
2020/12/23 10:26:15;;;;;;;13.05;3.08;;;11.30;92.10;;;;;;5029241;28;20021;-70
2020/12/23 10:28:40;;;;;;;11.23;2.70;;;11.30;91.90;;;;;;5036872;28;20036;-69
2020/12/23 10:31:07;;;;;;;11.07;2.53;;;11.30;91.90;;;;;;5028318;28;20026;-69
2020/12/23 10:33:36;;;;;;;11.30;3.10;;;11.30;91.90;;;;;;5030187;28;20029;-69
2020/12/23 10:36:03;;;;;;;8.20;2.90;;;11.30;91.90;;;;;;5004853;28;20033;-69
2020/12/23 10:38:29;;;;;;;13.52;3.40;;;11.30;91.90;;;;;;5032929;28;20096;-69
2020/12/23 10:40:57;;;;;;;14.10;4.90;;;11.40;92.10;;;;;;5026104;28;20033;-70
2020/12/23 10:43:23;;;;;;;13.35;3.50;;;11.40;91.90;;;;;;5027020;28;20029;-69
2020/12/23 10:45:49;;;;;;;12.98;3.67;;;11.40;91.80;;;;;;5034224;28;20021;-69
2020/12/23 10:48:15;;;;;;;11.15;3.45;;;11.30;91.80;;;;;;5029185;28;20029;-71
2020/12/23 10:50:41;;;;;;;15.07;3.85;;;11.30;92.00;;;;;;5047429;28;20051;-73
2020/12/23 10:53:06;;;;;;;12.30;3.92;;;11.30;92.10;;;;;;5029938;28;20032;-72
2020/12/23 10:55:32;;;;;;;15.82;4.22;;;11.30;92.20;;;;;;5017038;28;20118;-71
2020/12/23 10:57:57;;;;;;;11.05;3.38;;;11.30;92.20;;;;;;5015721;28;20401;-71
2020/12/23 11:00:23;;;;;;;16.33;3.50;;;11.30;92.20;;;;;;5008222;28;20036;-70
2020/12/23 11:02:48;;;;;;;8.75;2.95;;;11.20;92.30;;;;;;5021898;28;20609;-72
2020/12/23 11:05:14;;;;;;;8.52;2.85;;;11.30;92.40;;;;;;5030750;28;20029;-71
2020/12/23 11:07:39;;;;;;;16.35;4.05;;;11.30;92.40;;;;;;5044782;28;20063;-73
2020/12/23 11:10:05;;;;;;;9.90;3.28;;;11.20;92.30;;;;;;5016847;28;20022;-73
2020/12/23 11:12:32;;;;;;;10.35;3.20;;;11.20;92.40;;;;;;5022441;28;20033;-73
2020/12/23 11:14:57;;;;;;;15.38;3.78;;;11.20;92.50;;;;;;5007069;28;20030;-71
2020/12/23 11:17:23;;;;;;;12.52;3.45;;;11.30;92.50;;;;;;5032322;28;20540;-72
2020/12/23 11:19:54;;;;;;;12.50;3.53;;;11.20;92.60;;;;;;5033174;28;20108;-72
2020/12/23 11:22:20;;;;;;;17.55;3.40;;;11.20;92.70;;;;;;5033770;28;20026;-72
2020/12/23 11:24:45;;;;;;;11.52;3.10;;;11.30;92.90;;;;;;5034104;28;20026;-72
2020/12/23 11:27:10;;;;;;;15.02;3.67;;;11.30;92.50;;;;;;5033642;28;20048;-72
2020/12/23 11:29:36;;;;;;;11.20;3.05;;;11.30;92.50;;;;;;5033601;28;20032;-71
2020/12/23 11:32:01;;;;;;;12.15;3.85;;;11.20;92.50;;;;;;5022733;28;20021;-71
2020/12/23 11:34:27;;;;;;;13.95;3.40;;;11.20;92.60;;;;;;5029575;28;20042;-71
2020/12/23 11:36:56;;;;;;;14.07;3.63;;;11.30;92.60;;;;;;5014317;28;20466;-71
2020/12/23 11:39:21;;;;;;;13.50;3.58;;;11.30;92.70;;;;;;5017814;28;20052;-71
2020/12/23 11:41:47;;;;;;;9.95;3.05;;;11.30;92.60;;;;;;5021052;28;20030;-71
2020/12/23 11:44:12;;;;;;;11.95;3.55;;;11.30;92.60;;;;;;5022625;28;20105;-71
2020/12/23 11:46:38;;;;;;;9.60;3.95;;;11.30;92.60;;;;;;5013532;28;20037;-72
2020/12/23 11:49:03;;;;;;;13.20;4.03;;;11.30;92.60;;;;;;5030779;28;20120;-72
2020/12/23 11:51:29;;;;;;;11.95;3.47;;;11.30;92.70;;;;;;5033880;28;20029;-72
2020/12/23 11:53:56;;;;;;;8.93;3.47;;;11.30;92.80;;;;;;5019483;28;20038;-72
2020/12/23 11:56:22;;;;;;;12.13;3.45;;;11.30;92.70;;;;;;5025675;28;20080;-72
2020/12/23 11:58:47;;;;;;;9.18;3.28;;;11.20;92.50;;;;;;5047699;28;20473;-72
2020/12/23 12:01:13;;;;;;;9.25;3.50;;;11.20;92.40;;;;;;5039141;28;20108;-72
2020/12/23 12:03:38;;;;;;;15.80;4.10;;;11.20;92.50;;;;;;5033670;28;20022;-72
2020/12/23 12:06:04;;;;;;;13.75;4.43;;;11.20;92.50;;;;;;5032576;28;20030;-72
2020/12/23 12:08:30;;;;;;;10.35;3.58;;;11.20;92.50;;;;;;5033437;28;20031;-72
2020/12/23 12:10:56;;;;;;;13.45;3.80;;;11.20;92.50;;;;;;5033318;28;20048;-72
2020/12/23 12:13:23;;;;;;;14.20;4.07;;;11.20;92.50;;;;;;5017145;28;20037;-72
2020/12/23 12:15:48;;;;;;;10.20;3.78;;;11.10;92.60;;;;;;4995865;28;20042;-72
2020/12/23 12:18:14;;;;;;;14.98;3.50;;;11.10;92.70;;;;;;5013600;28;20021;-72
2020/12/23 12:20:40;;;;;;;13.90;4.47;;;11.10;92.70;;;;;;5013388;28;20088;-72
2020/12/23 12:23:05;;;;;;;12.93;4.20;;;11.10;92.70;;;;;;5013907;28;20588;-72
2020/12/23 12:25:33;;;;;;;12.40;3.65;;;11.10;92.80;;;;;;5013615;28;20018;-71
2020/12/23 12:27:59;;;;;;;9.32;3.45;;;11.00;92.80;;;;;;5025325;28;20105;-72
2020/12/23 12:30:24;;;;;;;12.63;3.78;;;11.10;93.00;;;;;;5032715;28;20108;-72
2020/12/23 12:32:50;;;;;;;9.32;3.60;;;11.10;92.90;;;;;;5033034;28;20048;-73
2020/12/23 12:35:15;;;;;;;17.38;4.97;;;11.10;92.90;;;;;;5032817;28;20025;-72
2020/12/23 12:37:41;;;;;;;13.23;3.90;;;11.10;92.90;;;;;;5032533;28;20138;-73
2020/12/23 12:40:06;;;;;;;13.73;3.35;;;11.10;93.10;;;;;;5013299;28;20034;-75
2020/12/23 12:42:32;;;;;;;9.60;3.80;;;11.10;93.20;;;;;;5018911;28;20021;-72